Time;durP1;ratioP1;P1;durP2;ratioP2;P2;SDS_P1;SDS_P2;PMS_P1;PMS_P2;Temp;Humidity;BMP_temperature;BMP_pressure;BME280_temperature;BME280_humidity;BME280_pressure;Samples;Min_cycle;Max_cycle;Signal;HPM_P1;HPM_P2
2023/07/21 00:01:17;;;;;;;6.28;3.22;;;;;;;16.01;75.77;101360.78;7391326;19;20038;-63
2023/07/21 00:03:45;;;;;;;6.25;2.40;;;;;;;15.98;75.42;101346.84;7388559;19;20019;-62
2023/07/21 00:06:17;;;;;;;6.85;2.70;;;;;;;15.99;75.48;101348.56;7389980;19;20014;-62
2023/07/21 00:08:45;;;;;;;7.07;2.75;;;;;;;15.93;75.72;101351.75;7388587;19;20046;-63
2023/07/21 00:11:12;;;;;;;5.53;2.40;;;;;;;15.93;75.84;101346.41;7388512;19;20014;-62
2023/07/21 00:13:39;;;;;;;6.28;3.20;;;;;;;15.92;75.90;101348.22;7390848;19;20042;-63
2023/07/21 00:16:07;;;;;;;6.68;2.80;;;;;;;15.91;75.88;101337.66;7389189;19;20018;-62
2023/07/21 00:18:35;;;;;;;6.75;3.15;;;;;;;15.90;75.97;101335.97;7388872;19;20021;-63
2023/07/21 00:21:05;;;;;;;5.95;3.17;;;;;;;15.83;75.89;101338.31;7386189;19;20023;-60
2023/07/21 00:23:33;;;;;;;6.07;3.30;;;;;;;15.56;76.97;101342.34;7387976;19;20023;-59
2023/07/21 00:26:03;;;;;;;8.52;2.92;;;;;;;15.68;76.89;101339.66;7389204;19;20047;-61
2023/07/21 00:28:30;;;;;;;5.95;2.78;;;;;;;15.78;76.33;101328.06;7389929;19;20033;-59
2023/07/21 00:30:58;;;;;;;6.57;2.85;;;;;;;15.82;76.02;101328.63;7387409;19;20036;-62
2023/07/21 00:33:25;;;;;;;4.88;3.00;;;;;;;15.78;76.07;101327.22;7391419;19;20086;-62
2023/07/21 00:35:55;;;;;;;5.35;2.97;;;;;;;15.77;76.03;101328.19;7387249;19;20397;-63
2023/07/21 00:38:22;;;;;;;6.05;2.80;;;;;;;15.76;75.75;101321.16;7389321;19;20019;-63
2023/07/21 00:40:50;;;;;;;6.43;2.90;;;;;;;15.76;75.71;101321.16;7387675;19;20044;-62
2023/07/21 00:43:18;;;;;;;6.95;2.97;;;;;;;15.80;75.29;101326.09;7389341;19;20024;-60
2023/07/21 00:45:48;;;;;;;8.13;3.25;;;;;;;15.75;75.62;101317.63;7388839;19;20018;-60
2023/07/21 00:48:17;;;;;;;6.00;3.00;;;;;;;15.75;75.86;101319.47;7386930;19;20022;-59
2023/07/21 00:50:49;;;;;;;6.28;2.90;;;;;;;15.81;75.37;101321.59;7387506;19;20021;-59
2023/07/21 00:53:16;;;;;;;7.60;2.95;;;;;;;15.75;75.53;101322.97;7388723;19;20015;-59
2023/07/21 00:55:46;;;;;;;7.50;3.10;;;;;;;15.75;75.64;101320.28;7388369;19;20048;-60
2023/07/21 00:58:18;;;;;;;5.55;3.08;;;;;;;15.79;75.38;101315.53;7386884;19;20419;-60
2023/07/21 01:00:46;;;;;;;5.85;3.00;;;;;;;15.73;75.11;101311.59;7387648;19;20018;-61
2023/07/21 01:03:16;;;;;;;5.38;2.90;;;;;;;15.68;75.50;101319.16;7391052;19;20098;-62
2023/07/21 01:05:49;;;;;;;6.82;3.05;;;;;;;15.65;75.69;101315.88;7395454;19;20026;-62
2023/07/21 01:08:17;;;;;;;8.20;3.38;;;;;;;15.63;75.63;101312.47;7396485;19;20037;-60
2023/07/21 01:10:48;;;;;;;6.15;3.10;;;;;;;15.44;76.05;101313.22;7393636;19;20037;-61
2023/07/21 01:13:18;;;;;;;6.50;2.85;;;;;;;15.44;76.21;101313.22;7396127;19;20034;-61
2023/07/21 01:15:49;;;;;;;6.20;3.33;;;;;;;15.58;75.84;101304.88;7394378;19;20043;-60
2023/07/21 01:18:18;;;;;;;7.22;3.25;;;;;;;15.68;75.26;101311.16;7395994;19;20026;-60
2023/07/21 01:20:47;;;;;;;6.47;3.05;;;;;;;15.69;75.07;101314.66;7393303;19;20026;-61
2023/07/21 01:23:44;;;;;;;7.53;3.85;;;;;;;15.39;76.15;101313.59;7395550;19;20087;-60
2023/07/21 01:26:12;;;;;;;5.38;3.42;;;;;;;15.32;76.84;101309.75;7394345;19;20052;-60
2023/07/21 01:28:40;;;;;;;6.43;3.00;;;;;;;15.29;77.08;101300.19;7395629;19;20026;-61
2023/07/21 01:31:08;;;;;;;5.68;2.90;;;;;;;15.45;76.44;101294.38;7393591;19;20014;-63
2023/07/21 01:33:36;;;;;;;6.53;3.05;;;;;;;15.58;75.74;101299.53;7395751;19;20365;-60
2023/07/21 01:36:06;;;;;;;5.47;3.00;;;;;;;15.56;75.87;101294.31;7394766;19;20025;-61
2023/07/21 01:38:34;;;;;;;8.32;3.45;;;;;;;15.69;75.16;101294.13;7394971;19;20440;-60
2023/07/21 01:41:05;;;;;;;6.53;3.03;;;;;;;15.67;74.93;101292.56;7391746;19;20047;-60
2023/07/21 01:43:33;;;;;;;5.30;2.88;;;;;;;15.56;75.24;101294.31;7396708;19;20086;-60
2023/07/21 01:46:00;;;;;;;3.97;2.47;;;;;;;15.52;75.28;101284.03;7391301;19;20021;-64
2023/07/21 01:48:28;;;;;;;6.00;2.80;;;;;;;15.55;75.23;101289.09;7391028;19;20368;-64
2023/07/21 01:50:56;;;;;;;5.13;2.53;;;;;;;15.47;75.56;101278.25;7389341;19;20495;-63
2023/07/21 01:53:28;;;;;;;6.72;2.67;;;;;;;15.51;75.29;101277.00;7391491;19;20475;-59
2023/07/21 01:56:01;;;;;;;6.78;2.80;;;;;;;15.56;74.97;101280.13;7392021;19;20014;-60
2023/07/21 01:58:29;;;;;;;5.65;2.83;;;;;;;15.45;75.15;101266.84;7394696;19;20138;-59
2023/07/21 02:00:58;;;;;;;6.47;3.20;;;;;;;15.50;75.13;101269.97;7392360;19;20024;-62
2023/07/21 02:03:26;;;;;;;6.20;2.97;;;;;;;15.53;75.37;101267.91;7392806;19;20022;-61
2023/07/21 02:05:54;;;;;;;8.40;3.53;;;;;;;15.52;75.15;101255.50;7393875;19;20018;-61
2023/07/21 02:08:21;;;;;;;9.10;3.20;;;;;;;15.53;75.10;101259.88;7394358;19;20023;-61
2023/07/21 02:10:49;;;;;;;7.82;3.40;;;;;;;15.48;75.44;101264.75;7392379;19;20019;-61
2023/07/21 02:13:16;;;;;;;6.43;2.97;;;;;;;15.58;75.30;101262.16;7394512;19;20109;-62
2023/07/21 02:15:43;;;;;;;6.78;3.30;;;;;;;15.60;75.20;101263.69;7391807;19;20018;-62
2023/07/21 02:18:11;;;;;;;7.50;3.20;;;;;;;15.63;75.30;101267.94;7393956;19;20018;-61
2023/07/21 02:20:38;;;;;;;7.32;3.22;;;;;;;15.64;75.22;101264.28;7390331;19;20026;-61
2023/07/21 02:23:06;;;;;;;6.85;3.10;;;;;;;15.65;75.21;101263.34;7394056;19;20476;-61
2023/07/21 02:25:33;;;;;;;5.88;3.22;;;;;;;15.58;75.31;101254.16;7393477;19;20025;-61
2023/07/21 02:28:00;;;;;;;7.72;2.83;;;;;;;15.54;75.67;101255.38;7393550;19;20095;-62
2023/07/21 02:30:29;;;;;;;6.20;3.40;;;;;;;15.55;75.41;101243.72;7391948;19;20018;-62
2023/07/21 02:32:56;;;;;;;8.50;3.25;;;;;;;15.54;75.35;101242.03;7394454;19;20010;-63
2023/07/21 02:35:23;;;;;;;6.80;3.83;;;;;;;15.45;75.44;101251.66;7392442;19;20015;-63
2023/07/21 02:37:51;;;;;;;7.18;3.80;;;;;;;15.17;76.71;101242.53;7392707;19;20014;-63
2023/07/21 02:40:18;;;;;;;8.93;3.75;;;;;;;15.22;76.62;101234.97;7390438;19;20014;-63
2023/07/21 02:42:45;;;;;;;8.13;3.88;;;;;;;14.98;77.17;101235.25;7391065;19;20067;-64
2023/07/21 02:45:13;;;;;;;8.10;3.63;;;;;;;15.20;76.75;101234.28;7392163;19;20482;-61
2023/07/21 02:47:40;;;;;;;7.00;3.47;;;;;;;15.39;76.25;101246.03;7390806;19;20515;-63
2023/07/21 02:50:10;;;;;;;7.55;3.22;;;;;;;15.45;75.75;101238.31;7390106;19;20015;-63
2023/07/21 02:52:42;;;;;;;8.50;3.30;;;;;;;15.42;75.64;101237.78;7390692;19;20368;-63
2023/07/21 02:55:09;;;;;;;6.68;3.28;;;;;;;15.36;76.12;101226.63;7392358;19;20011;-63
2023/07/21 02:57:36;;;;;;;7.15;3.30;;;;;;;15.48;75.42;101237.22;7391914;19;20089;-63
2023/07/21 03:00:04;;;;;;;6.20;3.25;;;;;;;15.49;75.61;101225.56;7391862;19;20014;-64
2023/07/21 03:02:34;;;;;;;7.00;3.65;;;;;;;15.50;75.65;101227.28;7392156;19;20487;-63
2023/07/21 03:05:04;;;;;;;7.70;3.38;;;;;;;15.52;75.50;101222.63;7392351;19;20038;-63
2023/07/21 03:07:31;;;;;;;6.55;3.20;;;;;;;15.49;75.17;101220.22;7392387;19;20025;-64
2023/07/21 03:09:59;;;;;;;5.43;3.30;;;;;;;15.54;75.10;101212.69;7390897;19;20026;-62
2023/07/21 03:12:26;;;;;;;6.88;3.42;;;;;;;15.41;75.47;101222.72;7391142;19;20014;-63
2023/07/21 03:14:53;;;;;;;6.38;3.22;;;;;;;15.38;75.61;101222.97;7389737;19;20015;-62
2023/07/21 03:17:20;;;;;;;7.97;3.28;;;;;;;15.44;75.50;101219.78;7392019;19;20033;-62
2023/07/21 03:19:48;;;;;;;6.75;3.20;;;;;;;15.45;75.47;101219.63;7391160;19;20023;-64
2023/07/21 03:22:16;;;;;;;7.30;3.70;;;;;;;15.46;75.28;101216.00;7391747;19;20124;-64
2023/07/21 03:24:43;;;;;;;6.55;2.95;;;;;;;15.53;75.17;101218.97;7391001;19;20030;-64
2023/07/21 03:27:12;;;;;;;6.60;3.10;;;;;;;15.57;74.74;101220.44;7391329;19;20483;-63
2023/07/21 03:29:40;;;;;;;7.00;3.40;;;;;;;15.48;75.18;101218.53;7391043;19;20039;-63
2023/07/21 03:32:09;;;;;;;6.05;3.15;;;;;;;15.36;75.41;101221.28;7391148;19;20396;-63
2023/07/21 03:34:36;;;;;;;5.88;3.08;;;;;;;15.14;76.37;101217.94;7392901;19;20086;-60
2023/07/21 03:37:08;;;;;;;5.68;3.00;;;;;;;14.99;77.12;101212.91;7389549;19;20019;-59
2023/07/21 03:39:35;;;;;;;6.70;2.78;;;;;;;15.22;76.43;101218.97;7389067;19;20022;-60
2023/07/21 03:42:03;;;;;;;5.47;2.70;;;;;;;15.34;76.23;101211.75;7390342;19;20018;-60
2023/07/21 03:44:31;;;;;;;7.05;2.92;;;;;;;15.50;75.95;101216.59;7391265;19;20022;-62
2023/07/21 03:46:58;;;;;;;5.13;2.55;;;;;;;15.47;75.84;101206.19;7390914;19;20023;-61
2023/07/21 03:49:25;;;;;;;5.53;3.00;;;;;;;15.48;76.22;101203.38;7390476;19;20018;-61
2023/07/21 03:51:52;;;;;;;6.45;2.80;;;;;;;15.46;76.15;101197.34;7390013;19;20394;-61
2023/07/21 03:54:20;;;;;;;6.00;3.00;;;;;;;15.46;76.49;101200.00;7388981;19;20484;-61
2023/07/21 03:56:47;;;;;;;6.10;2.92;;;;;;;15.56;75.89;101203.53;7389928;19;20031;-62
2023/07/21 03:59:15;;;;;;;6.57;2.75;;;;;;;15.51;76.02;101200.44;7390434;19;20047;-64
2023/07/21 04:01:42;;;;;;;6.07;2.45;;;;;;;15.52;76.21;101203.94;7390717;19;20506;-64
2023/07/21 04:04:10;;;;;;;7.88;3.05;;;;;;;15.52;76.13;101196.78;7390580;19;20011;-63
2023/07/21 04:06:37;;;;;;;5.32;2.78;;;;;;;15.58;75.87;101195.41;7388117;19;20030;-63
2023/07/21 04:09:04;;;;;;;5.53;2.75;;;;;;;15.62;75.82;101199.50;7389296;19;20031;-63
2023/07/21 04:11:32;;;;;;;7.05;2.85;;;;;;;15.56;75.71;101197.34;7389629;19;20006;-64
2023/07/21 04:14:00;;;;;;;7.47;2.72;;;;;;;15.59;75.92;101192.59;7390670;19;20038;-61
2023/07/21 04:16:27;;;;;;;6.70;3.10;;;;;;;15.42;76.17;101187.06;7388233;19;20018;-60
2023/07/21 04:18:55;;;;;;;7.18;3.10;;;;;;;15.31;77.13;101186.16;7389333;19;20040;-62
2023/07/21 04:21:23;;;;;;;6.32;2.90;;;;;;;15.44;76.53;101191.25;7390310;19;20010;-62
2023/07/21 04:23:50;;;;;;;5.97;3.10;;;;;;;15.59;76.08;101192.59;7388177;19;20531;-63
2023/07/21 04:26:18;;;;;;;5.85;3.17;;;;;;;15.63;75.96;101195.00;7390225;19;20018;-63
2023/07/21 04:28:45;;;;;;;6.47;3.28;;;;;;;15.64;76.52;101202.03;7387828;19;20039;-63
2023/07/21 04:31:12;;;;;;;5.90;3.15;;;;;;;15.68;76.19;101198.13;7388049;19;20023;-62
2023/07/21 04:33:40;;;;;;;5.70;2.95;;;;;;;15.70;76.26;101193.50;7391762;19;20022;-63
2023/07/21 04:36:08;;;;;;;6.15;2.90;;;;;;;15.69;76.28;101186.50;7388998;19;20018;-63
2023/07/21 04:38:35;;;;;;;7.28;3.15;;;;;;;15.70;76.52;101186.34;7395266;19;20011;-63
2023/07/21 04:41:02;;;;;;;5.53;3.00;;;;;;;15.73;76.46;101191.41;7392467;19;20018;-62
2023/07/21 04:43:30;;;;;;;5.53;2.90;;;;;;;15.75;76.35;101194.78;7396785;19;20476;-62
2023/07/21 04:45:57;;;;;;;8.23;3.10;;;;;;;15.67;76.72;101197.28;7396254;19;20089;-62
2023/07/21 04:48:24;;;;;;;7.15;3.45;;;;;;;15.75;76.44;101197.44;7395437;19;20097;-62
2023/07/21 04:50:52;;;;;;;8.80;4.00;;;;;;;15.75;76.76;101200.13;7393882;19;20022;-62
2023/07/21 04:53:20;;;;;;;7.32;3.42;;;;;;;15.80;76.51;101202.41;7394215;19;20033;-62
2023/07/21 04:55:48;;;;;;;9.90;4.05;;;;;;;15.80;76.51;101202.41;7394668;19;20018;-62
2023/07/21 04:58:15;;;;;;;8.10;3.75;;;;;;;15.78;76.91;101196.34;7395683;19;20022;-63
2023/07/21 05:00:42;;;;;;;8.35;3.67;;;;;;;15.84;76.76;101190.47;7393767;19;20019;-62
2023/07/21 05:03:09;;;;;;;7.38;3.50;;;;;;;15.97;76.55;101198.22;7396439;19;20018;-62
2023/07/21 05:05:38;;;;;;;8.55;3.42;;;;;;;15.90;76.69;101173.88;7396032;19;20031;-63
2023/07/21 05:08:06;;;;;;;7.85;3.00;;;;;;;16.03;76.47;101187.00;7395100;19;20025;-62
2023/07/21 05:10:35;;;;;;;4.32;2.85;;;;;;;16.11;76.23;101192.50;7394361;19;20024;-62
2023/07/21 05:13:05;;;;;;;5.05;3.00;;;;;;;15.98;76.84;101189.22;7394124;19;20033;-62
2023/07/21 05:15:35;;;;;;;9.25;3.58;;;;;;;15.94;76.79;101195.81;7395117;19;20047;-60
2023/07/21 05:18:02;;;;;;;6.97;3.15;;;;;;;15.79;77.43;101193.53;7394572;19;20030;-61
2023/07/21 05:20:30;;;;;;;4.80;2.85;;;;;;;15.83;77.45;101194.97;7394359;19;20079;-61
2023/07/21 05:22:57;;;;;;;7.75;2.97;;;;;;;15.89;77.15;101198.06;7394218;19;20027;-61
2023/07/21 05:25:28;;;;;;;4.88;2.70;;;;;;;15.93;76.61;101194.16;7393738;19;20022;-61
2023/07/21 05:27:55;;;;;;;3.25;2.28;;;;;;;16.01;76.62;101197.81;7394543;19;20018;-61
2023/07/21 05:30:24;;;;;;;6.40;2.78;;;;;;;16.06;76.84;101205.41;7392382;19;20019;-61
2023/07/21 05:32:51;;;;;;;5.03;2.60;;;;;;;15.91;77.87;101204.09;7394747;19;20042;-61
2023/07/21 05:35:19;;;;;;;4.70;2.63;;;;;;;16.04;77.47;101200.22;7394771;19;20068;-61
2023/07/21 05:37:47;;;;;;;6.47;2.97;;;;;;;16.20;77.25;101199.66;7395278;19;20127;-58
2023/07/21 05:40:14;;;;;;;5.18;2.95;;;;;;;16.30;76.84;101207.72;7393495;19;20026;-58
2023/07/21 05:42:42;;;;;;;6.55;3.15;;;;;;;16.36;77.06;101201.78;7395359;19;20030;-58
2023/07/21 05:45:11;;;;;;;8.15;3.05;;;;;;;16.44;76.89;101195.75;7393862;19;20019;-61
2023/07/21 05:47:39;;;;;;;5.95;2.95;;;;;;;16.45;77.14;101192.13;7395050;19;20108;-62
2023/07/21 05:50:07;;;;;;;4.78;3.10;;;;;;;16.64;76.39;101201.97;7390385;19;20011;-62
2023/07/21 05:52:35;;;;;;;5.22;3.00;;;;;;;16.75;75.41;101200.03;7393481;19;20015;-62
2023/07/21 05:55:03;;;;;;;7.15;3.58;;;;;;;16.80;74.82;101196.91;7391787;19;20021;-61
2023/07/21 05:57:30;;;;;;;7.03;3.58;;;;;;;16.84;74.24;101198.31;7392801;19;20348;-62
2023/07/21 05:59:58;;;;;;;8.10;3.70;;;;;;;16.85;74.06;101201.81;7392894;19;20086;-63
2023/07/21 06:02:25;;;;;;;7.20;3.60;;;;;;;16.90;73.84;101199.56;7394437;19;20510;-63
2023/07/21 06:04:56;;;;;;;5.82;3.63;;;;;;;16.85;74.25;101199.16;7392973;19;20029;-60
2023/07/21 06:07:23;;;;;;;6.00;3.17;;;;;;;16.86;74.30;101192.81;7394542;19;20093;-60
2023/07/21 06:09:51;;;;;;;6.35;3.53;;;;;;;16.86;74.27;101195.47;7394350;19;20014;-60
2023/07/21 06:12:18;;;;;;;5.40;3.58;;;;;;;16.82;73.93;101192.25;7393061;19;20507;-60
2023/07/21 06:14:45;;;;;;;8.93;3.40;;;;;;;16.87;73.92;101191.84;7391774;19;20015;-61
2023/07/21 06:17:13;;;;;;;7.28;3.97;;;;;;;16.87;73.84;101199.88;7394172;19;20016;-60
2023/07/21 06:19:41;;;;;;;8.40;3.60;;;;;;;16.88;73.96;101201.53;7394203;19;20365;-61
2023/07/21 06:22:08;;;;;;;7.13;3.40;;;;;;;16.92;73.51;101189.56;7394124;19;20034;-61
2023/07/21 06:24:35;;;;;;;6.63;3.88;;;;;;;16.91;73.17;101191.41;7391813;19;20011;-61
2023/07/21 06:27:03;;;;;;;7.35;4.13;;;;;;;16.88;73.01;101183.66;7393135;19;20021;-61
2023/07/21 06:29:30;;;;;;;6.22;3.53;;;;;;;16.95;72.85;101190.13;7393951;19;20022;-60
2023/07/21 06:31:57;;;;;;;6.22;3.70;;;;;;;16.98;72.83;101194.31;7392999;19;20022;-60
2023/07/21 06:34:25;;;;;;;7.65;4.03;;;;;;;16.98;72.53;101186.28;7395088;19;20019;-61
2023/07/21 06:36:53;;;;;;;6.93;3.70;;;;;;;16.98;72.55;101187.16;7391412;19;20085;-61
2023/07/21 06:39:22;;;;;;;7.18;3.65;;;;;;;17.07;72.42;101188.13;7393186;19;20014;-60
2023/07/21 06:41:51;;;;;;;5.93;3.60;;;;;;;17.16;71.93;101191.75;7392837;19;20018;-60
2023/07/21 06:44:20;;;;;;;8.30;4.38;;;;;;;17.23;72.29;101198.22;7391686;19;20025;-60
2023/07/21 06:46:49;;;;;;;6.38;3.53;;;;;;;17.30;71.78;101193.97;7392658;19;20039;-60
2023/07/21 06:49:17;;;;;;;6.78;3.58;;;;;;;17.35;71.83;101193.53;7392649;19;20014;-61
2023/07/21 06:51:44;;;;;;;6.72;3.30;;;;;;;17.39;71.74;101186.88;7391303;19;20022;-62
2023/07/21 06:54:12;;;;;;;7.82;3.65;;;;;;;17.42;71.27;101183.94;7390033;19;20097;-62
2023/07/21 06:56:39;;;;;;;6.22;3.60;;;;;;;17.37;71.17;101186.22;7392518;19;20011;-59
2023/07/21 06:59:06;;;;;;;8.85;3.65;;;;;;;17.30;70.88;101194.81;7392583;19;20082;-60
2023/07/21 07:01:34;;;;;;;8.63;3.60;;;;;;;17.34;70.32;101194.53;7391282;19;20018;-59
2023/07/21 07:04:01;;;;;;;10.57;4.50;;;;;;;17.37;70.71;101202.28;7391905;19;20465;-60
2023/07/21 07:06:28;;;;;;;8.20;3.47;;;;;;;17.39;70.79;101201.13;7391549;19;20026;-61
2023/07/21 07:08:56;;;;;;;7.80;4.25;;;;;;;17.47;70.69;101203.06;7392590;19;20510;-67
2023/07/21 07:11:23;;;;;;;10.88;3.80;;;;;;;17.43;70.71;101201.66;7391730;19;20015;-66
2023/07/21 07:13:51;;;;;;;8.55;3.95;;;;;;;17.52;70.38;101198.97;7390893;19;20182;-66
2023/07/21 07:16:18;;;;;;;9.57;3.90;;;;;;;17.51;70.38;101191.94;7389569;19;20023;-62
2023/07/21 07:18:46;;;;;;;12.57;4.50;;;;;;;17.54;70.84;101190.78;7392112;19;20386;-59
2023/07/21 07:21:14;;;;;;;17.50;5.30;;;;;;;17.57;69.80;101184.28;7391924;19;20027;-59
2023/07/21 07:23:41;;;;;;;11.68;4.45;;;;;;;17.61;69.20;101186.53;7391101;19;20019;-59
2023/07/21 07:26:08;;;;;;;13.52;4.10;;;;;;;17.61;69.01;101183.84;7390455;19;20096;-59
2023/07/21 07:28:36;;;;;;;10.23;4.03;;;;;;;17.63;68.47;101181.00;7391332;19;20392;-61
2023/07/21 07:31:04;;;;;;;9.65;4.07;;;;;;;17.65;68.86;101177.19;7392344;19;20037;-60
2023/07/21 07:33:31;;;;;;;9.15;3.92;;;;;;;17.69;68.97;101183.09;7390244;19;20019;-60
2023/07/21 07:36:01;;;;;;;13.38;4.75;;;;;;;17.76;68.95;101173.50;7390096;19;20022;-58
2023/07/21 07:38:30;;;;;;;9.15;3.85;;;;;;;17.72;68.65;101178.28;7390050;19;20018;-60
2023/07/21 07:41:08;;;;;;;8.73;4.13;;;;;;;17.78;68.37;101177.72;7390876;19;20192;-61
2023/07/21 07:43:36;;;;;;;7.70;3.67;;;;;;;17.84;68.79;101168.25;7390232;19;20564;-59
2023/07/21 07:46:07;;;;;;;7.88;3.88;;;;;;;17.97;68.25;101173.22;7390348;19;20022;-62
2023/07/21 07:48:35;;;;;;;9.25;4.25;;;;;;;18.03;68.18;101175.31;7391130;19;20082;-62
2023/07/21 07:51:04;;;;;;;10.57;4.75;;;;;;;18.10;67.89;101175.56;7390741;19;20030;-62
2023/07/21 07:53:32;;;;;;;10.25;4.82;;;;;;;17.98;67.41;101169.56;7389586;19;20022;-66
2023/07/21 07:55:59;;;;;;;15.50;4.70;;;;;;;18.00;67.30;101181.81;7390556;19;20014;-63
2023/07/21 07:58:27;;;;;;;11.38;5.15;;;;;;;18.07;67.21;101170.50;7389945;19;20014;-62
2023/07/21 08:00:56;;;;;;;13.02;4.95;;;;;;;18.06;66.26;101166.13;7389495;19;20024;-62
2023/07/21 08:03:24;;;;;;;13.13;4.00;;;;;;;18.08;66.42;101161.47;7390622;19;20018;-62
2023/07/21 08:05:51;;;;;;;9.27;3.85;;;;;;;18.16;65.98;101154.34;7387883;19;20021;-62
2023/07/21 08:08:21;;;;;;;8.10;3.50;;;;;;;18.15;65.79;101166.06;7388757;19;20492;-60
2023/07/21 08:10:49;;;;;;;11.73;3.97;;;;;;;18.18;65.84;101160.41;7388620;19;20015;-60
2023/07/21 08:13:17;;;;;;;10.52;4.93;;;;;;;18.21;66.11;101148.53;7392620;19;20484;-63
2023/07/21 08:15:45;;;;;;;11.00;4.60;;;;;;;18.31;65.92;101145.75;7397560;19;20046;-61
2023/07/21 08:18:12;;;;;;;9.65;4.60;;;;;;;18.33;65.52;101146.47;7397811;19;20487;-64
2023/07/21 08:20:40;;;;;;;8.30;4.53;;;;;;;18.33;65.74;101143.78;7395985;19;20011;-60
2023/07/21 08:23:08;;;;;;;11.38;4.68;;;;;;;18.36;65.28;101136.28;7396736;19;20060;-60
2023/07/21 08:25:53;;;;;;;8.52;4.95;;;;;;;18.39;65.46;101141.34;7399746;19;20026;-60
2023/07/21 08:28:21;;;;;;;11.20;5.25;;;;;;;18.56;64.56;101136.94;7399026;19;20026;-61
2023/07/21 08:30:48;;;;;;;10.20;5.60;;;;;;;18.64;64.01;101142.34;7399082;19;20492;-61
2023/07/21 08:33:26;;;;;;;10.00;4.78;;;;;;;18.78;63.53;101132.94;7398196;19;20019;-62
2023/07/21 08:35:53;;;;;;;11.20;5.57;;;;;;;18.93;63.35;101133.22;7396980;19;20369;-62
2023/07/21 08:38:21;;;;;;;10.52;5.60;;;;;;;18.94;63.58;101137.56;7394447;19;20430;-62
2023/07/21 08:40:52;;;;;;;12.75;4.95;;;;;;;18.99;63.90;101135.25;7397269;19;20031;-61
2023/07/21 08:43:19;;;;;;;10.60;5.30;;;;;;;19.02;63.53;101132.25;7399242;19;20022;-62
2023/07/21 08:45:47;;;;;;;10.90;5.40;;;;;;;19.07;63.55;101126.41;7398021;19;20017;-62
2023/07/21 08:48:17;;;;;;;7.57;4.47;;;;;;;19.04;63.21;101138.31;7397725;19;20052;-62
2023/07/21 08:50:48;;;;;;;10.68;3.58;;;;;;;19.07;62.75;101132.59;7395532;19;20025;-62
2023/07/21 08:53:15;;;;;;;5.97;2.47;;;;;;;19.01;62.91;101135.09;7395314;19;20043;-62
2023/07/21 08:55:43;;;;;;;6.57;2.70;;;;;;;18.94;62.03;101134.88;7394046;19;20423;-62
2023/07/21 08:58:10;;;;;;;10.68;4.53;;;;;;;18.98;61.10;101133.56;7394199;19;20014;-60
2023/07/21 09:00:38;;;;;;;9.25;4.88;;;;;;;19.05;60.65;101126.56;7396543;19;20352;-61
2023/07/21 09:03:05;;;;;;;9.35;4.90;;;;;;;19.09;61.04;101129.78;7394311;19;20037;-61
2023/07/21 09:05:33;;;;;;;10.10;4.15;;;;;;;19.08;60.65;101131.63;7395075;19;20024;-60
2023/07/21 09:08:01;;;;;;;10.43;4.78;;;;;;;19.14;60.71;101119.38;7396199;19;20023;-60
2023/07/21 09:10:31;;;;;;;12.57;5.53;;;;;;;19.12;60.79;101126.78;7395245;19;20022;-61
2023/07/21 09:12:59;;;;;;;11.55;5.30;;;;;;;19.08;61.09;101115.50;7396355;19;20137;-62
2023/07/21 09:15:27;;;;;;;11.73;4.63;;;;;;;19.12;61.06;101118.72;7394788;19;20022;-61
2023/07/21 09:17:55;;;;;;;8.15;3.22;;;;;;;19.13;59.09;101123.09;7395973;19;20018;-62
2023/07/21 09:20:22;;;;;;;10.35;3.60;;;;;;;19.16;57.85;101120.91;7396452;19;20044;-62
2023/07/21 09:22:50;;;;;;;6.00;2.80;;;;;;;19.19;58.11;101125.97;7395471;19;20018;-62
2023/07/21 09:25:21;;;;;;;9.57;3.30;;;;;;;19.29;58.31;101116.94;7393841;19;20025;-62
2023/07/21 09:27:55;;;;;;;8.48;3.13;;;;;;;19.35;58.23;101119.00;7395026;19;20074;-61
2023/07/21 09:30:23;;;;;;;6.88;2.55;;;;;;;19.35;58.58;101121.69;7395499;19;20015;-62
2023/07/21 09:32:54;;;;;;;3.80;2.35;;;;;;;19.46;58.20;101121.41;7395155;19;20018;-61
2023/07/21 09:35:22;;;;;;;6.78;2.40;;;;;;;19.46;57.60;101122.25;7392829;19;20034;-61
2023/07/21 09:37:51;;;;;;;5.63;2.30;;;;;;;19.47;57.38;101115.84;7394555;19;20085;-62
2023/07/21 09:40:28;;;;;;;6.95;2.53;;;;;;;19.42;57.41;101125.38;7394726;19;20015;-61
2023/07/21 09:42:57;;;;;;;6.03;2.28;;;;;;;19.27;57.64;101127.00;7395191;19;20036;-61
2023/07/21 09:45:26;;;;;;;4.22;2.10;;;;;;;19.35;57.21;101110.94;7393701;19;20388;-61
2023/07/21 09:47:56;;;;;;;6.38;2.05;;;;;;;19.47;57.43;101112.34;7393489;19;20015;-62
2023/07/21 09:50:23;;;;;;;5.30;2.35;;;;;;;19.53;56.73;101110.81;7394542;19;20092;-61
2023/07/21 09:52:53;;;;;;;7.05;1.88;;;;;;;19.63;56.32;101109.72;7394708;19;20011;-61
2023/07/21 09:55:22;;;;;;;5.30;1.83;;;;;;;19.62;55.44;101104.53;7393475;19;20022;-62
2023/07/21 09:57:49;;;;;;;4.53;2.03;;;;;;;19.59;55.62;101113.72;7394278;19;20018;-62
2023/07/21 10:00:18;;;;;;;5.63;1.77;;;;;;;19.54;55.54;101112.53;7392223;19;20018;-62
2023/07/21 10:02:48;;;;;;;4.43;2.15;;;;;;;19.63;56.11;101112.41;7394450;19;20039;-61
2023/07/21 10:05:15;;;;;;;4.40;2.20;;;;;;;19.70;56.16;101107.22;7391084;19;20014;-61
2023/07/21 10:07:49;;;;;;;5.00;2.00;;;;;;;19.76;56.07;101109.25;7394027;19;20007;-61
2023/07/21 10:10:18;;;;;;;5.65;2.15;;;;;;;19.86;55.41;101107.25;7394220;19;20020;-62
2023/07/21 10:12:49;;;;;;;4.18;1.70;;;;;;;19.91;55.41;101101.38;7393811;19;20059;-61
2023/07/21 10:15:21;;;;;;;4.30;2.03;;;;;;;19.84;54.66;101103.03;7390957;19;20051;-61
2023/07/21 10:18:00;;;;;;;4.03;1.98;;;;;;;19.89;53.86;101103.41;7393368;19;20014;-62
2023/07/21 10:20:44;;;;;;;5.78;1.80;;;;;;;19.90;52.14;101097.84;7394333;19;20028;-61
2023/07/21 10:23:13;;;;;;;;;;;;;;;19.65;52.61;101096.09;7393177;19;20511;-61
2023/07/21 10:25:53;;;;;;;3.45;1.50;;;;;;;19.64;53.22;101099.81;7392284;19;19963;-62
2023/07/21 10:28:43;;;;;;;5.10;1.75;;;;;;;19.63;54.05;101101.66;7393217;19;20399;-62
2023/07/21 10:34:11;;;;;;;4.90;1.60;;;;;;;19.85;53.60;101100.22;7394316;19;20094;-62
2023/07/21 10:36:41;;;;;;;4.03;1.60;;;;;;;19.93;52.77;101088.63;7390997;19;20097;-62
2023/07/21 10:39:14;;;;;;;3.03;1.60;;;;;;;20.08;52.02;101097.72;7392942;19;20018;-61
2023/07/21 10:41:44;;;;;;;4.78;1.63;;;;;;;20.11;52.57;101094.72;7392199;19;20081;-61
2023/07/21 10:44:12;;;;;;;4.00;1.50;;;;;;;20.14;52.42;101091.66;7391687;19;20043;-61
2023/07/21 10:46:41;;;;;;;4.32;1.73;;;;;;;20.23;52.00;101097.91;7391832;19;20018;-60
2023/07/21 10:49:10;;;;;;;3.70;1.50;;;;;;;20.24;51.78;101093.34;7390660;19;20019;-60
2023/07/21 10:51:39;;;;;;;3.30;1.42;;;;;;;20.31;52.62;101089.00;7392068;19;20024;-60
2023/07/21 10:54:07;;;;;;;6.43;1.58;;;;;;;20.39;52.27;101078.22;7391164;19;20455;-60
2023/07/21 10:56:38;;;;;;;4.32;1.65;;;;;;;20.45;50.40;101072.16;7392221;19;20010;-60
2023/07/21 10:59:06;;;;;;;2.25;1.08;;;;;;;20.59;50.15;101086.81;7392263;19;20034;-61
2023/07/21 11:01:54;;;;;;;3.47;1.48;;;;;;;20.65;49.89;101086.13;7392593;19;20018;-61
2023/07/21 11:04:23;;;;;;;3.78;1.40;;;;;;;20.47;50.34;101080.06;7389101;19;20027;-62
2023/07/21 11:06:51;;;;;;;2.83;1.35;;;;;;;20.45;50.34;101072.16;7390135;19;20104;-60
2023/07/21 11:09:21;;;;;;;3.55;1.48;;;;;;;20.53;49.71;101071.31;7389653;19;20491;-61
2023/07/21 11:11:51;;;;;;;4.85;1.50;;;;;;;20.52;49.83;101080.41;7390564;19;20104;-60
2023/07/21 11:14:24;;;;;;;2.90;1.42;;;;;;;20.58;48.89;101075.22;7387123;19;20035;-61
2023/07/21 11:16:59;;;;;;;5.53;1.50;;;;;;;20.59;49.57;101076.88;7389592;19;20108;-61
2023/07/21 11:19:29;;;;;;;6.57;2.13;;;;;;;20.72;49.28;101087.13;7390202;19;20015;-61
2023/07/21 11:21:57;;;;;;;6.72;1.90;;;;;;;20.82;48.85;101092.31;7389133;19;20044;-61
2023/07/21 11:24:28;;;;;;;2.85;1.40;;;;;;;20.80;48.64;101081.72;7386272;19;20022;-61
2023/07/21 11:27:05;;;;;;;3.10;1.58;;;;;;;20.75;49.32;101078.69;7387334;19;20033;-61
2023/07/21 11:29:39;;;;;;;4.25;1.40;;;;;;;20.62;50.27;101073.84;7390215;19;20018;-62
2023/07/21 11:32:20;;;;;;;4.38;1.30;;;;;;;20.72;49.43;101070.13;7389378;19;20014;-61
2023/07/21 11:34:55;;;;;;;3.65;1.63;;;;;;;20.86;49.53;101077.50;7390571;19;20026;-62